Time,TemperatureF,DewpointF,PressureIn,WindDirection,WindDirectionDegrees,WindSpeedMPH,WindSpeedGustMPH,Humidity,HourlyPrecipIn,Conditions,Clouds,dailyrainin,SoftwareType,DateUTC
2013-01-27 00:03:00,17.0,14.0,30.32,WNW,294,3.0,8.0,86,0.00,,,0.00,,2013-01-27 05:03:00,
2013-01-27 00:12:00,17.0,14.0,30.32,WNW,294,3.0,8.0,86,0.00,,,0.00,,2013-01-27 05:12:00,
2013-01-27 00:22:00,17.0,14.0,30.32,North,0,0.0,7.0,86,0.00,,,0.00,,2013-01-27 05:22:00,
2013-01-27 00:32:00,16.0,13.0,30.33,West,267,1.0,8.0,87,0.00,,,0.00,,2013-01-27 05:32:00,
2013-01-27 00:41:00,16.0,13.0,30.33,West,267,1.0,8.0,87,0.00,,,0.00,,2013-01-27 05:41:00,
2013-01-27 00:52:00,16.0,13.0,30.32,West,271,2.0,10.0,87,0.00,,,0.00,,2013-01-27 05:52:00,
2013-01-27 01:02:00,15.0,12.0,30.33,North,0,0.0,5.0,87,0.00,,,0.00,,2013-01-27 06:02:00,
2013-01-27 01:11:00,15.0,12.0,30.33,North,0,0.0,5.0,87,0.00,,,0.00,,2013-01-27 06:11:00,
2013-01-27 01:21:00,15.0,12.0,30.33,North,0,0.0,3.0,87,0.00,,,0.00,,2013-01-27 06:21:00,
2013-01-27 01:32:00,15.0,12.0,30.32,NW,312,1.0,4.0,88,0.00,,,0.00,,2013-01-27 06:32:00,
2013-01-27 01:42:00,15.0,12.0,30.32,NW,312,1.0,4.0,88,0.00,,,0.00,,2013-01-27 06:42:00,
2013-01-27 01:52:00,15.0,12.0,30.33,WNW,302,1.0,3.0,88,0.00,,,0.00,,2013-01-27 06:52:00,
2013-01-27 02:01:00,14.0,11.0,30.35,North,0,0.0,2.0,89,0.00,,,0.00,,2013-01-27 07:01:00,
2013-01-27 02:14:00,14.0,11.0,30.35,North,0,0.0,2.0,89,0.00,,,0.00,,2013-01-27 07:14:00,
2013-01-27 02:21:00,14.0,11.0,30.35,North,0,0.0,2.0,89,0.00,,,0.00,,2013-01-27 07:21:00,
2013-01-27 02:31:00,14.0,12.0,30.36,North,0,0.0,2.0,90,0.00,,,0.00,,2013-01-27 07:31:00,
2013-01-27 02:42:00,14.0,12.0,30.36,North,0,0.0,2.0,90,0.00,,,0.00,,2013-01-27 07:42:00,
2013-01-27 02:52:00,14.0,12.0,30.35,North,0,0.0,2.0,90,0.00,,,0.00,,2013-01-27 07:52:00,
2013-01-27 03:01:00,14.0,12.0,30.36,North,0,0.0,1.0,90,0.00,,,0.00,,2013-01-27 08:01:00,
2013-01-27 03:11:00,14.0,12.0,30.36,North,0,0.0,1.0,90,0.00,,,0.00,,2013-01-27 08:11:00,
2013-01-27 03:22:00,14.0,12.0,30.35,North,0,0.0,2.0,90,0.00,,,0.00,,2013-01-27 08:22:00,
2013-01-27 03:32:00,14.0,12.0,30.36,WSW,242,2.0,3.0,90,0.00,,,0.00,,2013-01-27 08:32:00,
2013-01-27 03:42:00,14.0,12.0,30.36,WSW,242,2.0,3.0,90,0.00,,,0.00,,2013-01-27 08:42:00,
2013-01-27 03:52:00,13.0,11.0,30.35,WSW,240,1.0,4.0,90,0.00,,,0.00,,2013-01-27 08:52:00,
2013-01-27 04:02:00,13.0,11.0,30.36,WSW,242,1.0,5.0,90,0.00,,,0.00,,2013-01-27 09:02:00,
2013-01-27 04:11:00,13.0,11.0,30.36,WSW,242,1.0,5.0,90,0.00,,,0.00,,2013-01-27 09:11:00,
2013-01-27 04:21:00,14.0,12.0,30.36,WSW,249,2.0,6.0,90,0.00,,,0.00,,2013-01-27 09:21:00,
2013-01-27 04:32:00,14.0,12.0,30.35,WSW,255,2.0,6.0,90,0.00,,,0.00,,2013-01-27 09:32:00,
2013-01-27 04:41:00,14.0,12.0,30.35,WSW,255,2.0,6.0,90,0.00,,,0.00,,2013-01-27 09:41:00,
2013-01-27 04:52:00,14.0,11.0,30.36,North,0,0.0,5.0,89,0.00,,,0.00,,2013-01-27 09:52:00,
2013-01-27 05:01:00,14.0,12.0,30.36,WSW,252,1.0,2.0,90,0.00,,,0.00,,2013-01-27 10:01:00,
2013-01-27 05:11:00,14.0,12.0,30.36,WSW,252,1.0,2.0,90,0.00,,,0.00,,2013-01-27 10:11:00,
2013-01-27 05:21:00,14.0,12.0,30.36,WSW,252,1.0,2.0,90,0.00,,,0.00,,2013-01-27 10:21:00,
2013-01-27 05:32:00,14.0,12.0,30.37,North,0,0.0,2.0,90,0.00,,,0.00,,2013-01-27 10:32:00,
2013-01-27 05:42:00,14.0,12.0,30.37,North,0,0.0,2.0,90,0.00,,,0.00,,2013-01-27 10:42:00,
2013-01-27 05:52:00,14.0,12.0,30.37,North,0,0.0,2.0,90,0.00,,,0.00,,2013-01-27 10:52:00,
2013-01-27 06:01:00,12.0,9.0,30.37,North,0,0.0,0.0,87,0.00,,,0.00,,2013-01-27 11:01:00,
2013-01-27 06:11:00,10.0,7.0,30.35,North,0,0.0,2.0,89,0.00,,,0.00,,2013-01-27 11:11:00,
2013-01-27 06:21:00,10.0,7.0,30.35,North,0,0.0,2.0,89,0.00,,,0.00,,2013-01-27 11:21:00,
2013-01-27 06:32:00,10.0,7.0,30.35,ESE,118,1.0,3.0,89,0.00,,,0.00,,2013-01-27 11:32:00,
2013-01-27 06:42:00,10.0,7.0,30.35,ESE,118,1.0,3.0,89,0.00,,,0.00,,2013-01-27 11:42:00,
2013-01-27 06:52:00,9.0,7.0,30.35,North,0,0.0,0.0,92,0.00,,,0.00,,2013-01-27 11:52:00,
2013-01-27 07:02:00,9.0,7.0,30.36,North,0,0.0,0.0,92,0.00,,,0.00,,2013-01-27 12:02:00,
2013-01-27 07:12:00,9.0,7.0,30.36,North,0,0.0,0.0,92,0.00,,,0.00,,2013-01-27 12:12:00,
2013-01-27 07:22:00,11.0,9.0,30.37,North,0,0.0,2.0,93,0.00,,,0.00,,2013-01-27 12:22:00,
2013-01-27 07:32:00,10.0,7.0,30.39,North,0,0.0,3.0,88,0.00,,,0.00,,2013-01-27 12:32:00,
2013-01-27 07:42:00,10.0,7.0,30.39,North,0,0.0,3.0,88,0.00,,,0.00,,2013-01-27 12:42:00,
2013-01-27 07:52:00,9.0,7.0,30.39,ESE,103,1.0,2.0,91,0.00,,,0.00,,2013-01-27 12:52:00,
2013-01-27 08:02:00,10.0,8.0,30.38,North,0,0.0,2.0,93,0.00,,,0.00,,2013-01-27 13:02:00,
2013-01-27 08:11:00,10.0,8.0,30.38,North,0,0.0,2.0,93,0.00,,,0.00,,2013-01-27 13:11:00,
2013-01-27 08:22:00,12.0,10.0,30.39,North,0,0.0,0.0,92,0.00,,,0.00,,2013-01-27 13:22:00,
2013-01-27 08:32:00,12.0,9.0,30.40,East,96,3.0,5.0,88,0.00,,,0.00,,2013-01-27 13:32:00,
2013-01-27 08:42:00,12.0,9.0,30.40,East,96,3.0,5.0,88,0.00,,,0.00,,2013-01-27 13:42:00,
2013-01-27 08:52:00,11.0,9.0,30.41,North,0,0.0,2.0,90,0.00,,,0.00,,2013-01-27 13:52:00,
2013-01-27 09:02:00,14.0,12.0,30.41,North,0,0.0,0.0,90,0.00,,,0.00,,2013-01-27 14:02:00,
2013-01-27 09:12:00,14.0,12.0,30.41,North,0,0.0,0.0,90,0.00,,,0.00,,2013-01-27 14:12:00,
2013-01-27 09:22:00,16.0,13.0,30.41,East,81,1.0,2.0,86,0.00,,,0.00,,2013-01-27 14:22:00,
2013-01-27 09:32:00,16.0,12.0,30.41,North,0,0.0,0.0,84,0.00,,,0.00,,2013-01-27 14:32:00,
2013-01-27 09:42:00,16.0,12.0,30.41,North,0,0.0,0.0,84,0.00,,,0.00,,2013-01-27 14:42:00,
2013-01-27 09:53:00,18.0,13.0,30.41,North,0,0.0,1.0,81,0.00,,,0.00,,2013-01-27 14:53:00,
2013-01-27 10:02:00,18.0,13.0,30.42,North,0,0.0,1.0,82,0.00,,,0.00,,2013-01-27 15:02:00,
2013-01-27 10:12:00,18.0,13.0,30.42,North,0,0.0,1.0,82,0.00,,,0.00,,2013-01-27 15:12:00,
2013-01-27 10:22:00,19.0,14.0,30.41,North,0,0.0,3.0,81,0.01,,,0.01,,2013-01-27 15:22:00,
2013-01-27 10:32:00,20.0,15.0,30.41,North,0,0.0,2.0,81,0.03,,,0.03,,2013-01-27 15:32:00,
2013-01-27 10:42:00,20.0,15.0,30.41,North,0,0.0,2.0,81,0.03,,,0.03,,2013-01-27 15:42:00,
2013-01-27 10:53:00,21.0,15.0,30.41,North,0,0.0,3.0,76,0.05,,,0.05,,2013-01-27 15:53:00,
2013-01-27 11:02:00,21.0,15.0,30.41,North,0,0.0,3.0,78,0.06,,,0.06,,2013-01-27 16:02:00,
2013-01-27 11:12:00,21.0,15.0,30.41,North,0,0.0,3.0,78,0.06,,,0.06,,2013-01-27 16:12:00,
2013-01-27 11:22:00,21.0,14.0,30.41,East,83,1.0,3.0,74,0.06,,,0.07,,2013-01-27 16:22:00,
2013-01-27 11:32:00,23.0,15.0,30.41,North,0,0.0,1.0,72,0.05,,,0.08,,2013-01-27 16:32:00,
2013-01-27 11:42:00,23.0,15.0,30.41,North,0,0.0,1.0,72,0.05,,,0.08,,2013-01-27 16:42:00,
2013-01-27 11:53:00,23.0,14.0,30.40,North,0,0.0,3.0,69,0.04,,,0.09,,2013-01-27 16:53:00,
2013-01-27 12:02:00,25.0,17.0,30.39,North,0,0.0,3.0,70,0.05,,,0.11,,2013-01-27 17:02:00,
2013-01-27 12:12:00,25.0,17.0,30.39,North,0,0.0,3.0,70,0.05,,,0.11,,2013-01-27 17:12:00,
2013-01-27 12:22:00,24.0,16.0,30.38,North,0,0.0,4.0,70,0.04,,,0.11,,2013-01-27 17:22:00,
2013-01-27 12:32:00,25.0,17.0,30.37,SSW,206,1.0,5.0,70,0.04,,,0.12,,2013-01-27 17:32:00,
2013-01-27 12:42:00,25.0,17.0,30.37,SSW,206,1.0,5.0,70,0.04,,,0.12,,2013-01-27 17:42:00,
2013-01-27 12:53:00,26.0,16.0,30.36,ESE,113,2.0,4.0,65,0.04,,,0.13,,2013-01-27 17:53:00,
2013-01-27 13:02:00,26.0,17.0,30.36,North,0,0.0,5.0,67,0.03,,,0.13,,2013-01-27 18:02:00,
2013-01-27 13:12:00,26.0,17.0,30.36,North,0,0.0,5.0,67,0.03,,,0.13,,2013-01-27 18:12:00,
2013-01-27 13:22:00,27.0,17.0,30.36,North,0,0.0,3.0,66,0.02,,,0.13,,2013-01-27 18:22:00,
2013-01-27 13:32:00,26.0,16.0,30.36,ESE,110,3.0,7.0,64,0.01,,,0.14,,2013-01-27 18:32:00,
2013-01-27 13:42:00,26.0,16.0,30.36,ESE,110,3.0,7.0,64,0.01,,,0.14,,2013-01-27 18:42:00,
2013-01-27 13:53:00,27.0,17.0,30.36,SE,127,1.0,4.0,65,0.01,,,0.14,,2013-01-27 18:53:00,
2013-01-27 14:02:00,27.0,15.0,30.35,ESE,107,1.0,4.0,61,0.02,,,0.15,,2013-01-27 19:02:00,
2013-01-27 14:12:00,27.0,15.0,30.35,ESE,107,1.0,4.0,61,0.02,,,0.15,,2013-01-27 19:12:00,
2013-01-27 14:22:00,28.0,16.0,30.35,ESE,123,1.0,3.0,60,0.02,,,0.15,,2013-01-27 19:22:00,
2013-01-27 14:32:00,28.0,16.0,30.34,North,0,0.0,5.0,60,0.01,,,0.15,,2013-01-27 19:32:00,
2013-01-27 14:42:00,28.0,16.0,30.34,North,0,0.0,5.0,60,0.01,,,0.15,,2013-01-27 19:42:00,
2013-01-27 14:52:00,27.0,15.0,30.37,East,101,1.0,3.0,61,0.00,,,0.15,,2013-01-27 19:52:00,
2013-01-27 15:02:00,28.0,17.0,30.37,North,0,0.0,3.0,62,0.00,,,0.15,,2013-01-27 20:02:00,
2013-01-27 15:12:00,28.0,17.0,30.37,North,0,0.0,3.0,62,0.00,,,0.15,,2013-01-27 20:12:00,
2013-01-27 15:22:00,27.0,15.0,30.36,ESE,107,1.0,3.0,61,0.01,,,0.16,,2013-01-27 20:22:00,
2013-01-27 15:33:00,28.0,16.0,30.36,ESE,119,1.0,3.0,60,0.01,,,0.16,,2013-01-27 20:33:00,
2013-01-27 15:42:00,28.0,16.0,30.36,ESE,119,1.0,3.0,60,0.01,,,0.16,,2013-01-27 20:42:00,
2013-01-27 15:52:00,28.0,16.0,30.37,East,89,2.0,4.0,60,0.01,,,0.16,,2013-01-27 20:52:00,
2013-01-27 16:02:00,28.0,17.0,30.35,North,0,0.0,4.0,62,0.02,,,0.17,,2013-01-27 21:02:00,
2013-01-27 16:12:00,28.0,17.0,30.35,North,0,0.0,4.0,62,0.02,,,0.17,,2013-01-27 21:12:00,
2013-01-27 16:22:00,28.0,16.0,30.35,East,93,1.0,5.0,61,0.01,,,0.17,,2013-01-27 21:22:00,
2013-01-27 16:33:00,28.0,17.0,30.35,North,0,0.0,3.0,62,0.01,,,0.17,,2013-01-27 21:33:00,
2013-01-27 16:42:00,28.0,17.0,30.35,North,0,0.0,3.0,62,0.01,,,0.17,,2013-01-27 21:42:00,
2013-01-27 16:52:00,27.0,16.0,30.35,ESE,107,1.0,5.0,63,0.01,,,0.17,,2013-01-27 21:52:00,
2013-01-27 17:02:00,27.0,16.0,30.35,ESE,104,1.0,4.0,64,0.00,,,0.17,,2013-01-27 22:02:00,
2013-01-27 17:12:00,27.0,16.0,30.35,ESE,104,1.0,4.0,64,0.00,,,0.17,,2013-01-27 22:12:00,
2013-01-27 17:22:00,27.0,17.0,30.35,East,92,2.0,5.0,65,0.00,,,0.17,,2013-01-27 22:22:00,
2013-01-27 17:32:00,26.0,16.0,30.35,ESE,116,1.0,4.0,66,0.00,,,0.17,,2013-01-27 22:32:00,
2013-01-27 17:42:00,26.0,16.0,30.35,ESE,116,1.0,4.0,66,0.00,,,0.17,,2013-01-27 22:42:00,
2013-01-27 17:52:00,25.0,16.0,30.35,North,0,0.0,2.0,67,0.00,,,0.17,,2013-01-27 22:52:00,
2013-01-27 18:02:00,25.0,16.0,30.35,North,0,0.0,3.0,68,0.00,,,0.17,,2013-01-27 23:02:00,
2013-01-27 18:12:00,25.0,16.0,30.35,North,0,0.0,3.0,68,0.00,,,0.17,,2013-01-27 23:12:00,
2013-01-27 18:22:00,25.0,16.0,30.35,ESE,109,1.0,2.0,69,0.00,,,0.17,,2013-01-27 23:22:00,
2013-01-27 18:32:00,25.0,17.0,30.34,ESE,115,2.0,4.0,70,0.00,,,0.17,,2013-01-27 23:32:00,
2013-01-27 18:42:00,25.0,17.0,30.34,ESE,115,2.0,4.0,70,0.00,,,0.17,,2013-01-27 23:42:00,
2013-01-27 18:52:00,25.0,17.0,30.34,ESE,118,1.0,4.0,70,0.00,,,0.17,,2013-01-27 23:52:00,
2013-01-27 19:02:00,25.0,17.0,30.35,North,0,0.0,0.0,71,0.00,,,0.17,,2013-01-28 00:02:00,
2013-01-27 19:12:00,25.0,17.0,30.35,North,0,0.0,0.0,71,0.00,,,0.17,,2013-01-28 00:12:00,
2013-01-27 19:21:00,25.0,17.0,30.33,North,0,0.0,3.0,72,0.00,,,0.17,,2013-01-28 00:21:00,
2013-01-27 19:32:00,25.0,17.0,30.34,SSW,211,1.0,4.0,72,0.00,,,0.17,,2013-01-28 00:32:00,
2013-01-27 19:42:00,25.0,17.0,30.34,SSW,211,1.0,4.0,72,0.00,,,0.17,,2013-01-28 00:42:00,
2013-01-27 19:51:00,25.0,17.0,30.33,North,0,0.0,3.0,72,0.00,,,0.17,,2013-01-28 00:51:00,
2013-01-27 20:02:00,25.0,18.0,30.35,North,0,0.0,4.0,73,0.00,,,0.17,,2013-01-28 01:02:00,
2013-01-27 20:11:00,25.0,18.0,30.35,North,0,0.0,4.0,73,0.00,,,0.17,,2013-01-28 01:11:00,
2013-01-27 20:22:00,25.0,17.0,30.34,North,0,0.0,0.0,71,0.00,,,0.17,,2013-01-28 01:22:00,
2013-01-27 20:33:00,25.0,17.0,30.34,SW,217,2.0,5.0,72,0.00,,,0.17,,2013-01-28 01:33:00,
2013-01-27 20:42:00,25.0,17.0,30.34,SW,217,2.0,5.0,72,0.00,,,0.17,,2013-01-28 01:42:00,
2013-01-27 20:52:00,25.0,18.0,30.34,North,0,0.0,2.0,73,0.00,,,0.17,,2013-01-28 01:52:00,
2013-01-27 21:02:00,25.0,17.0,30.34,North,0,0.0,3.0,72,0.00,,,0.17,,2013-01-28 02:02:00,
2013-01-27 21:11:00,25.0,17.0,30.34,North,0,0.0,3.0,72,0.00,,,0.17,,2013-01-28 02:11:00,
2013-01-27 21:22:00,25.0,18.0,30.33,North,0,0.0,1.0,73,0.00,,,0.17,,2013-01-28 02:22:00,
2013-01-27 21:32:00,25.0,18.0,30.32,North,0,0.0,1.0,73,0.00,,,0.17,,2013-01-28 02:32:00,
2013-01-27 21:42:00,25.0,18.0,30.32,North,0,0.0,1.0,73,0.00,,,0.17,,2013-01-28 02:42:00,
2013-01-27 21:52:00,25.0,18.0,30.32,North,0,0.0,1.0,73,0.00,,,0.17,,2013-01-28 02:52:00,
2013-01-27 22:02:00,25.0,17.0,30.32,North,0,0.0,1.0,71,0.00,,,0.17,,2013-01-28 03:02:00,
2013-01-27 22:12:00,25.0,17.0,30.32,North,0,0.0,1.0,71,0.00,,,0.17,,2013-01-28 03:12:00,
2013-01-27 22:22:00,25.0,17.0,30.32,North,0,0.0,1.0,72,0.00,,,0.17,,2013-01-28 03:22:00,
2013-01-27 22:32:00,26.0,19.0,30.33,North,0,0.0,1.0,75,0.00,,,0.17,,2013-01-28 03:32:00,
2013-01-27 22:42:00,26.0,19.0,30.33,North,0,0.0,1.0,75,0.00,,,0.17,,2013-01-28 03:42:00,
2013-01-27 22:52:00,26.0,19.0,30.33,North,0,0.0,4.0,73,0.00,,,0.17,,2013-01-28 03:52:00,
2013-01-27 23:02:00,26.0,18.0,30.33,North,0,0.0,4.0,71,0.00,,,0.17,,2013-01-28 04:02:00,
2013-01-27 23:12:00,26.0,18.0,30.33,North,0,0.0,4.0,71,0.00,,,0.17,,2013-01-28 04:12:00,
2013-01-27 23:22:00,26.0,18.0,30.33,North,0,0.0,4.0,70,0.00,,,0.17,,2013-01-28 04:22:00,
2013-01-27 23:32:00,26.0,19.0,30.31,North,0,0.0,2.0,73,0.00,,,0.17,,2013-01-28 04:32:00,
2013-01-27 23:42:00,26.0,19.0,30.31,North,0,0.0,2.0,73,0.00,,,0.17,,2013-01-28 04:42:00,
2013-01-27 23:52:00,26.0,19.0,30.30,North,0,0.0,0.0,74,0.00,,,0.17,,2013-01-28 04:52:00,